createdAt,value
2022-11-30T00:01:56.526Z,36.60
2022-11-30T00:04:24.566Z,31.95
2022-11-30T00:06:56.774Z,53.58
2022-11-30T00:09:24.960Z,39.25
2022-11-30T00:11:54.258Z,27.17
2022-11-30T00:14:22.307Z,26.98
2022-11-30T00:16:50.372Z,25.58
2022-11-30T00:19:18.338Z,25.95
2022-11-30T00:21:46.228Z,29.23
2022-11-30T00:24:14.344Z,23.65
2022-11-30T00:26:42.416Z,24.15
2022-11-30T00:29:12.897Z,30.00
2022-11-30T00:31:40.798Z,27.75
2022-11-30T00:34:08.875Z,27.40
2022-11-30T00:36:36.753Z,35.43
2022-11-30T00:39:04.704Z,26.98
2022-11-30T00:41:32.683Z,24.15
2022-11-30T00:44:00.635Z,23.77
2022-11-30T00:46:29.918Z,22.48
2022-11-30T00:48:57.887Z,27.60
2022-11-30T00:51:25.805Z,26.63
2022-11-30T00:53:53.719Z,39.40
2022-11-30T00:56:22.993Z,35.50
2022-11-30T00:58:52.695Z,36.90
2022-11-30T01:01:20.697Z,29.00
2022-11-30T01:03:49.992Z,25.57
2022-11-30T01:06:17.988Z,27.85
2022-11-30T01:08:45.928Z,27.65
2022-11-30T01:11:16.561Z,29.85
2022-11-30T01:13:44.502Z,24.73
2022-11-30T01:16:15.670Z,25.90
2022-11-30T01:18:44.145Z,23.00
2022-11-30T01:21:16.323Z,23.07
2022-11-30T01:23:44.708Z,19.95
2022-11-30T01:26:13.092Z,26.00
2022-11-30T01:28:41.834Z,24.03
2022-11-30T01:31:11.883Z,23.70
2022-11-30T01:33:40.835Z,24.52
2022-11-30T01:36:12.190Z,18.65
2022-11-30T01:38:43.491Z,18.83
2022-11-30T01:41:13.579Z,29.15
2022-11-30T01:43:43.495Z,25.27
2022-11-30T01:46:35.309Z,23.25
2022-11-30T01:49:11.339Z,23.48
2022-11-30T01:51:41.975Z,22.57
2022-11-30T01:54:13.947Z,27.80
2022-11-30T01:56:46.024Z,35.35
2022-11-30T01:59:14.626Z,33.70
2022-11-30T02:01:42.670Z,33.15
2022-11-30T02:04:15.530Z,26.25
2022-11-30T02:06:44.246Z,20.27
2022-11-30T02:09:15.611Z,20.05
2022-11-30T02:11:43.702Z,19.60
2022-11-30T02:14:24.189Z,23.85
2022-11-30T02:17:02.583Z,22.70
2022-11-30T02:19:59.153Z,24.60
2022-11-30T02:22:37.392Z,24.63
2022-11-30T02:25:15.954Z,26.70
2022-11-30T02:27:57.386Z,31.45
2022-11-30T02:30:27.190Z,28.40
2022-11-30T02:32:59.470Z,25.05
2022-11-30T02:35:31.147Z,26.00
2022-11-30T02:38:01.022Z,23.73
2022-11-30T02:40:29.121Z,22.55
2022-11-30T02:43:00.482Z,21.13
2022-11-30T02:45:34.389Z,20.75
2022-11-30T02:48:08.845Z,21.10
2022-11-30T02:50:40.832Z,23.02
2022-11-30T02:53:10.060Z,20.73
2022-11-30T02:55:37.986Z,22.83
2022-11-30T02:58:06.010Z,24.30
2022-11-30T03:00:35.292Z,23.58
2022-11-30T03:03:03.365Z,21.65
2022-11-30T03:05:31.333Z,21.08
2022-11-30T03:07:59.516Z,20.35
2022-11-30T03:10:28.095Z,19.70
2022-11-30T03:12:58.858Z,21.60
2022-11-30T03:15:26.871Z,21.13
2022-11-30T03:17:56.450Z,17.92
2022-11-30T03:20:24.513Z,20.58
2022-11-30T03:22:52.493Z,19.60
2022-11-30T03:25:20.477Z,21.80
2022-11-30T03:27:48.431Z,19.52
2022-11-30T03:30:17.240Z,21.73
2022-11-30T03:32:45.205Z,20.73
2022-11-30T03:35:14.804Z,21.10
2022-11-30T03:37:42.857Z,20.60
2022-11-30T03:40:12.569Z,19.17
2022-11-30T03:42:40.674Z,20.60
2022-11-30T03:45:09.016Z,20.02
2022-11-30T03:47:37.732Z,19.30
2022-11-30T03:50:06.611Z,19.73
2022-11-30T03:52:35.877Z,18.77
2022-11-30T03:55:04.257Z,20.70
2022-11-30T03:57:32.157Z,19.90
2022-11-30T04:00:00.090Z,20.25
2022-11-30T04:02:28.213Z,18.35
2022-11-30T04:04:56.416Z,20.60
2022-11-30T04:07:24.441Z,18.85
2022-11-30T04:09:53.782Z,20.38
2022-11-30T04:12:21.673Z,21.42
2022-11-30T04:14:49.745Z,20.75
2022-11-30T04:17:17.790Z,19.85
2022-11-30T04:19:45.719Z,22.17
2022-11-30T04:22:13.577Z,20.65
2022-11-30T04:24:41.564Z,20.80
2022-11-30T04:27:11.077Z,22.77
2022-11-30T04:29:39.050Z,22.77
2022-11-30T04:32:07.226Z,23.17
2022-11-30T04:34:35.176Z,21.40
2022-11-30T04:37:03.087Z,24.17
2022-11-30T04:39:33.687Z,22.10
2022-11-30T04:42:01.591Z,23.02
2022-11-30T04:44:30.875Z,24.95
2022-11-30T04:46:58.862Z,24.35
2022-11-30T04:49:26.840Z,25.95
2022-11-30T04:51:54.779Z,25.48
2022-11-30T04:54:22.692Z,26.27
2022-11-30T04:56:50.639Z,23.38
2022-11-30T04:59:18.558Z,25.17
2022-11-30T05:01:47.932Z,26.25
2022-11-30T05:04:16.131Z,26.88
2022-11-30T05:06:44.099Z,25.10
2022-11-30T05:09:12.012Z,26.50
2022-11-30T05:11:39.916Z,23.80
2022-11-30T05:14:07.835Z,26.30
2022-11-30T05:16:35.789Z,25.63
2022-11-30T05:19:05.252Z,26.08
2022-11-30T05:21:33.237Z,26.37
2022-11-30T05:24:01.220Z,27.63
2022-11-30T05:26:29.152Z,26.83
2022-11-30T05:28:57.060Z,29.05
2022-11-30T05:31:25.074Z,29.35
2022-11-30T05:33:53.532Z,28.58
2022-11-30T05:36:23.362Z,28.90
2022-11-30T05:38:51.310Z,29.30
2022-11-30T05:41:19.308Z,29.23
2022-11-30T05:43:47.240Z,35.20
2022-11-30T05:46:15.233Z,28.80
2022-11-30T05:48:43.182Z,29.35
2022-11-30T05:51:13.270Z,25.70
2022-11-30T05:53:43.263Z,25.02
2022-11-30T05:56:13.758Z,27.27
2022-11-30T05:58:42.132Z,24.88
2022-11-30T06:01:17.806Z,25.65
2022-11-30T06:03:45.947Z,29.20
2022-11-30T06:06:13.920Z,29.15
2022-11-30T06:08:43.644Z,28.45
2022-11-30T06:11:12.186Z,31.30
2022-11-30T06:13:40.909Z,30.77
2022-11-30T06:16:10.002Z,31.40
2022-11-30T06:18:38.585Z,27.70
2022-11-30T06:21:09.525Z,32.05
2022-11-30T06:23:37.886Z,30.90
2022-11-30T06:26:08.701Z,35.50
2022-11-30T06:28:37.006Z,36.25
2022-11-30T06:31:07.231Z,32.10
2022-11-30T06:33:37.095Z,36.22
2022-11-30T06:36:05.727Z,32.85
2022-11-30T06:38:33.708Z,43.70
2022-11-30T06:41:06.172Z,32.07
2022-11-30T06:43:36.720Z,36.05
2022-11-30T06:46:05.803Z,33.13
2022-11-30T06:48:34.415Z,30.30
2022-11-30T06:51:02.596Z,32.67
2022-11-30T06:53:30.512Z,32.35
2022-11-30T06:55:58.429Z,33.08
2022-11-30T06:58:26.321Z,32.55
2022-11-30T07:00:55.736Z,31.65
2022-11-30T07:03:23.659Z,35.75
2022-11-30T07:05:51.563Z,36.78
2022-11-30T07:08:19.463Z,38.60
2022-11-30T07:10:48.450Z,36.47
2022-11-30T07:13:18.307Z,33.63
2022-11-30T07:15:46.820Z,36.38
2022-11-30T07:18:16.107Z,35.67
2022-11-30T07:20:44.273Z,36.17
2022-11-30T07:23:29.954Z,41.72
2022-11-30T07:26:10.348Z,38.75
2022-11-30T07:28:39.881Z,33.70
2022-11-30T07:31:16.698Z,35.88
2022-11-30T07:33:46.338Z,41.83
2022-11-30T07:36:14.383Z,38.97
2022-11-30T07:38:42.382Z,31.92
2022-11-30T07:41:10.683Z,34.83
2022-11-30T07:43:38.822Z,30.73
2022-11-30T07:46:07.644Z,32.83
2022-11-30T07:48:35.756Z,33.72
2022-11-30T07:51:06.229Z,35.28
2022-11-30T07:53:34.209Z,33.58
2022-11-30T07:56:06.466Z,35.27
2022-11-30T07:58:34.731Z,33.55
2022-11-30T08:01:04.369Z,34.75
2022-11-30T08:03:36.800Z,33.72
2022-11-30T08:06:09.013Z,35.38
2022-11-30T08:08:38.819Z,32.17
2022-11-30T08:11:08.064Z,33.88
2022-11-30T08:13:36.038Z,35.15
2022-11-30T08:16:04.784Z,36.63
2022-11-30T08:18:32.773Z,33.80
2022-11-30T08:21:01.755Z,38.60
2022-11-30T08:23:31.210Z,40.80
2022-11-30T08:26:04.540Z,43.13
2022-11-30T08:28:32.518Z,44.50
2022-11-30T08:31:01.287Z,42.78
2022-11-30T08:33:30.878Z,49.55
2022-11-30T08:36:07.526Z,41.55
2022-11-30T08:38:37.066Z,42.22
2022-11-30T08:41:05.769Z,39.95
2022-11-30T08:43:33.811Z,36.75
2022-11-30T08:46:08.385Z,39.80
2022-11-30T08:48:49.579Z,35.92
2022-11-30T08:51:19.416Z,43.78
2022-11-30T08:53:49.505Z,39.97
2022-11-30T08:56:19.054Z,35.00
2022-11-30T08:58:47.873Z,36.55
2022-11-30T09:01:17.616Z,37.63
2022-11-30T09:03:46.605Z,40.90
2022-11-30T09:06:16.380Z,41.03
2022-11-30T09:08:46.289Z,39.13
2022-11-30T09:11:17.235Z,39.40
2022-11-30T09:13:46.065Z,37.08
2022-11-30T09:16:15.196Z,42.38
2022-11-30T09:18:44.115Z,44.20
2022-11-30T09:21:15.141Z,38.80
2022-11-30T09:23:43.189Z,42.47
2022-11-30T09:26:12.747Z,37.85
2022-11-30T09:28:42.367Z,40.75
2022-11-30T09:31:13.644Z,34.15
2022-11-30T09:33:41.813Z,34.95
2022-11-30T09:36:12.104Z,34.67
2022-11-30T09:38:42.451Z,31.50
2022-11-30T09:41:27.923Z,34.55
2022-11-30T09:44:04.512Z,36.33
2022-11-30T09:46:40.543Z,30.13
2022-11-30T09:49:20.290Z,30.48
2022-11-30T09:51:49.745Z,31.38
2022-11-30T09:54:21.797Z,31.77
2022-11-30T09:56:50.566Z,30.83
2022-11-30T09:59:24.822Z,32.85
2022-11-30T10:01:56.984Z,36.63
2022-11-30T10:04:27.219Z,35.75
2022-11-30T10:07:08.368Z,37.80
2022-11-30T10:10:02.886Z,32.60
2022-11-30T10:12:41.022Z,28.63
2022-11-30T10:15:18.328Z,33.92
2022-11-30T10:17:54.974Z,32.53
2022-11-30T10:20:37.417Z,31.00
2022-11-30T10:23:18.433Z,30.90
2022-11-30T10:25:55.558Z,31.73
2022-11-30T10:28:52.096Z,30.90
2022-11-30T10:31:30.076Z,35.60
2022-11-30T10:34:04.420Z,33.10
2022-11-30T10:36:37.314Z,33.92
2022-11-30T10:39:20.427Z,32.97
2022-11-30T10:41:52.095Z,34.50
2022-11-30T10:44:23.180Z,32.03
2022-11-30T10:46:59.153Z,32.78
2022-11-30T10:49:29.886Z,34.03
2022-11-30T10:52:02.211Z,34.27
2022-11-30T10:54:31.536Z,33.17
2022-11-30T10:57:01.797Z,33.10
2022-11-30T10:59:39.744Z,38.20
2022-11-30T11:02:37.167Z,37.72
2022-11-30T11:05:23.735Z,37.40
2022-11-30T11:08:05.775Z,41.35
2022-11-30T11:10:37.486Z,35.00
2022-11-30T11:13:06.112Z,38.05
2022-11-30T11:15:35.288Z,37.28
2022-11-30T11:18:27.295Z,40.90
2022-11-30T11:21:07.859Z,37.28
2022-11-30T11:23:39.086Z,41.53
2022-11-30T11:26:08.662Z,42.60
2022-11-30T11:28:44.484Z,35.92
2022-11-30T11:31:20.699Z,45.20
2022-11-30T11:33:55.118Z,38.08
2022-11-30T11:36:28.907Z,36.53
2022-11-30T11:38:57.873Z,33.30
2022-11-30T11:41:29.013Z,32.08
2022-11-30T11:44:02.273Z,34.10
2022-11-30T11:46:31.999Z,29.95
2022-11-30T11:49:04.714Z,27.77
2022-11-30T11:51:34.465Z,27.20
2022-11-30T11:54:07.638Z,23.88
2022-11-30T11:56:37.138Z,26.20
2022-11-30T11:59:15.522Z,24.00
2022-11-30T12:01:51.865Z,27.95
2022-11-30T12:04:35.120Z,29.73
2022-11-30T12:07:17.898Z,28.63
2022-11-30T12:09:56.321Z,29.48
2022-11-30T12:12:24.509Z,31.63
2022-11-30T12:14:52.437Z,28.63
2022-11-30T12:17:34.269Z,31.10
2022-11-30T12:20:14.316Z,28.40
2022-11-30T12:22:57.705Z,27.58
2022-11-30T12:25:28.118Z,27.45
2022-11-30T12:28:06.543Z,26.00
2022-11-30T12:30:44.837Z,26.60
2022-11-30T12:33:17.320Z,26.08
2022-11-30T12:35:59.352Z,28.25
2022-11-30T12:38:43.101Z,27.35
2022-11-30T12:41:26.673Z,26.65
2022-11-30T12:44:04.201Z,28.85
2022-11-30T12:46:39.463Z,28.08
2022-11-30T12:49:22.677Z,26.30
2022-11-30T12:51:59.584Z,32.10
2022-11-30T12:54:34.239Z,28.23
2022-11-30T12:57:11.781Z,26.20
2022-11-30T12:59:48.301Z,26.00
2022-11-30T13:02:34.684Z,27.27
2022-11-30T13:05:07.201Z,33.90
2022-11-30T13:07:43.959Z,30.10
2022-11-30T13:10:22.618Z,29.65
2022-11-30T13:12:53.609Z,28.67
2022-11-30T13:15:24.633Z,27.10
2022-11-30T13:17:53.865Z,27.02
2022-11-30T13:20:29.081Z,27.20
2022-11-30T13:23:02.188Z,27.08
2022-11-30T13:26:06.955Z,25.67
2022-11-30T13:28:33.194Z,26.63
2022-11-30T13:31:06.807Z,27.10
2022-11-30T13:33:49.284Z,26.73
2022-11-30T13:36:43.452Z,36.92
2022-11-30T13:39:23.860Z,37.40
2022-11-30T13:42:11.099Z,36.63
2022-11-30T13:44:41.386Z,35.70
2022-11-30T13:47:19.305Z,33.43
2022-11-30T13:49:54.982Z,32.60
2022-11-30T13:53:10.835Z,34.35
2022-11-30T13:56:12.347Z,27.27
2022-11-30T13:59:19.065Z,27.92
2022-11-30T14:01:47.073Z,28.80
2022-11-30T14:04:46.536Z,27.73
2022-11-30T14:07:36.260Z,25.23
2022-11-30T14:10:05.890Z,22.88
2022-11-30T14:13:00.590Z,24.35
2022-11-30T14:15:54.605Z,23.73
2022-11-30T14:18:42.160Z,22.05
2022-11-30T14:21:25.955Z,23.50
2022-11-30T14:23:58.571Z,22.13
2022-11-30T14:26:31.289Z,22.15
2022-11-30T14:29:04.411Z,23.05
2022-11-30T14:31:40.125Z,24.02
2022-11-30T14:34:15.718Z,26.52
2022-11-30T14:36:47.265Z,26.73
2022-11-30T14:39:32.727Z,23.30
2022-11-30T14:42:00.962Z,24.15
2022-11-30T14:44:29.334Z,22.67
2022-11-30T14:46:58.800Z,20.60
2022-11-30T14:49:27.117Z,19.83
2022-11-30T14:52:00.072Z,20.55
2022-11-30T14:54:41.403Z,23.80
2022-11-30T14:57:19.239Z,26.35
2022-11-30T14:59:50.126Z,28.02
2022-11-30T15:02:31.484Z,30.30
2022-11-30T15:05:00.351Z,24.15
2022-11-30T15:07:29.736Z,20.35
2022-11-30T15:10:04.717Z,22.30
2022-11-30T15:12:33.421Z,21.58
2022-11-30T15:15:17.190Z,24.60
2022-11-30T15:17:55.735Z,23.25
2022-11-30T15:20:37.172Z,26.38
2022-11-30T15:23:14.320Z,24.52
2022-11-30T15:25:46.244Z,27.77
2022-11-30T15:28:18.991Z,29.77
2022-11-30T15:30:49.592Z,26.75
2022-11-30T15:33:22.111Z,26.88
2022-11-30T15:38:41.634Z,25.38
2022-11-30T15:41:19.502Z,25.90
2022-11-30T15:43:51.376Z,26.90
2022-11-30T15:46:34.480Z,23.50
2022-11-30T15:49:14.845Z,23.73
2022-11-30T15:51:46.089Z,23.08
2022-11-30T15:54:15.403Z,24.08
2022-11-30T15:56:57.045Z,22.33
2022-11-30T15:59:27.278Z,21.33
2022-11-30T16:02:02.154Z,18.60
2022-11-30T16:05:06.523Z,21.73
2022-11-30T16:07:39.079Z,23.92
2022-11-30T16:10:14.028Z,24.02
2022-11-30T16:12:44.592Z,19.33
2022-11-30T16:15:18.877Z,20.50
2022-11-30T16:17:46.869Z,20.88
2022-11-30T16:20:17.520Z,22.50
2022-11-30T16:22:47.345Z,23.00
2022-11-30T16:25:16.847Z,34.58
2022-11-30T16:27:45.455Z,19.63
2022-11-30T16:30:17.108Z,28.45
2022-11-30T16:32:45.357Z,23.58
2022-11-30T16:35:22.070Z,18.23
2022-11-30T16:37:50.549Z,16.35
2022-11-30T16:40:19.196Z,16.80
2022-11-30T16:42:49.351Z,14.75
2022-11-30T16:45:21.186Z,12.20
2022-11-30T16:47:49.500Z,13.15
2022-11-30T16:50:20.178Z,14.05
2022-11-30T16:52:48.251Z,14.55
2022-11-30T16:55:18.051Z,18.77
2022-11-30T16:57:46.934Z,19.75
2022-11-30T17:00:18.193Z,18.33
2022-11-30T17:02:50.862Z,19.88
2022-11-30T17:05:20.496Z,15.90
2022-11-30T17:07:48.551Z,15.18
2022-11-30T17:10:16.778Z,16.52
2022-11-30T17:12:44.703Z,14.15
2022-11-30T17:15:22.338Z,15.60
2022-11-30T17:17:50.706Z,15.20
2022-11-30T17:20:20.707Z,14.55
2022-11-30T17:22:48.624Z,13.90
2022-11-30T17:25:18.539Z,13.85
2022-11-30T17:27:46.796Z,13.88
2022-11-30T17:30:16.775Z,13.55
2022-11-30T17:32:44.896Z,13.35
2022-11-30T17:35:12.947Z,12.00
2022-11-30T17:37:42.254Z,13.45
2022-11-30T17:40:13.092Z,13.68
2022-11-30T17:42:41.236Z,14.20
2022-11-30T17:45:10.223Z,13.02
2022-11-30T17:47:38.717Z,14.30
2022-11-30T17:50:08.142Z,12.82
2022-11-30T17:52:36.372Z,16.38
2022-11-30T17:55:06.207Z,16.40
2022-11-30T17:57:34.164Z,15.63
2022-11-30T18:00:02.064Z,18.40
2022-11-30T18:02:32.994Z,15.30
2022-11-30T18:05:01.006Z,15.05
2022-11-30T18:07:29.064Z,16.15
2022-11-30T18:09:57.797Z,23.45
2022-11-30T18:12:27.127Z,18.63
2022-11-30T18:14:55.157Z,18.25
2022-11-30T18:17:23.113Z,30.90
2022-11-30T18:19:51.170Z,26.08
2022-11-30T18:22:19.137Z,22.77
2022-11-30T18:24:47.363Z,27.58
2022-11-30T18:27:15.510Z,24.88
2022-11-30T18:29:44.772Z,22.23
2022-11-30T18:32:12.774Z,25.33
2022-11-30T18:34:41.139Z,20.25
2022-11-30T18:37:09.142Z,21.00
2022-11-30T18:39:37.098Z,19.98
2022-11-30T18:42:05.090Z,19.60
2022-11-30T18:44:33.042Z,21.48
2022-11-30T18:47:02.341Z,20.70
2022-11-30T18:49:30.317Z,21.40
2022-11-30T18:51:58.385Z,21.90
2022-11-30T18:54:26.588Z,23.10
2022-11-30T18:56:54.672Z,23.80
2022-11-30T18:59:22.771Z,21.70
2022-11-30T19:01:51.878Z,20.48
2022-11-30T19:04:21.387Z,22.05
2022-11-30T19:06:49.376Z,23.67
2022-11-30T19:09:19.006Z,23.02
2022-11-30T19:11:47.339Z,21.38
2022-11-30T19:14:16.872Z,23.52
2022-11-30T19:16:46.312Z,24.38
2022-11-30T19:19:15.135Z,25.33
2022-11-30T19:21:47.864Z,20.95
2022-11-30T19:24:16.567Z,22.45
2022-11-30T19:26:44.572Z,22.10
2022-11-30T19:29:13.121Z,21.83
2022-11-30T19:31:41.178Z,20.83
2022-11-30T19:34:13.089Z,19.00
2022-11-30T19:36:41.955Z,19.30
2022-11-30T19:39:12.024Z,19.90
2022-11-30T19:41:40.014Z,20.33
2022-11-30T19:44:07.979Z,24.08
2022-11-30T19:46:35.971Z,22.70
2022-11-30T19:49:04.469Z,24.20
2022-11-30T19:51:32.918Z,22.05
2022-11-30T19:54:01.949Z,20.40
2022-11-30T19:56:34.532Z,19.33
2022-11-30T19:59:05.560Z,18.92
2022-11-30T20:01:35.263Z,21.65
2022-11-30T20:04:04.014Z,21.95
2022-11-30T20:06:35.685Z,21.50
2022-11-30T20:09:05.194Z,20.20
2022-11-30T20:11:34.600Z,23.35
2022-11-30T20:14:02.761Z,22.70
2022-11-30T20:16:30.797Z,22.45
2022-11-30T20:19:01.117Z,18.38
2022-11-30T20:21:31.074Z,18.20
2022-11-30T20:24:00.660Z,17.83
2022-11-30T20:26:30.949Z,18.02
2022-11-30T20:29:02.337Z,19.02
2022-11-30T20:31:32.019Z,19.27
2022-11-30T20:34:00.317Z,20.85
2022-11-30T20:36:28.635Z,18.13
2022-11-30T20:38:56.593Z,20.17
2022-11-30T20:41:25.783Z,19.02
2022-11-30T20:43:53.849Z,20.42
2022-11-30T20:46:25.565Z,18.85
2022-11-30T20:48:54.390Z,20.30
2022-11-30T20:51:32.839Z,20.77
2022-11-30T20:54:02.823Z,19.83
2022-11-30T20:56:31.199Z,25.35
2022-11-30T20:59:02.643Z,36.22
2022-11-30T21:01:32.066Z,23.45
2022-11-30T21:04:00.925Z,22.55
2022-11-30T21:06:29.391Z,21.73
2022-11-30T21:08:57.360Z,22.60
2022-11-30T21:11:25.976Z,21.70
2022-11-30T21:13:54.306Z,21.50
2022-11-30T21:16:28.057Z,21.10
2022-11-30T21:18:59.042Z,19.15
2022-11-30T21:21:28.475Z,20.17
2022-11-30T21:23:58.071Z,21.92
2022-11-30T21:26:28.043Z,23.63
2022-11-30T21:28:59.454Z,20.08
2022-11-30T21:31:27.723Z,26.30
2022-11-30T21:33:57.031Z,20.63
2022-11-30T21:36:24.969Z,19.88
2022-11-30T21:39:04.108Z,20.48
2022-11-30T21:41:34.114Z,19.13
2022-11-30T21:44:02.140Z,20.35
2022-11-30T21:46:30.181Z,19.50
2022-11-30T21:48:59.693Z,18.40
2022-11-30T21:51:29.864Z,19.70
2022-11-30T21:53:59.985Z,21.50
2022-11-30T21:56:29.364Z,19.33
2022-11-30T21:58:58.259Z,19.88
2022-11-30T22:01:28.423Z,22.27
2022-11-30T22:03:56.904Z,21.35
2022-11-30T22:06:27.920Z,21.17
2022-11-30T22:08:57.920Z,21.88
2022-11-30T22:11:25.905Z,20.13
2022-11-30T22:13:54.981Z,21.67
2022-11-30T22:16:28.732Z,20.75
2022-11-30T22:19:00.529Z,23.08
2022-11-30T22:21:31.734Z,22.70
2022-11-30T22:24:01.123Z,22.30
2022-11-30T22:26:30.699Z,21.15
2022-11-30T22:29:00.854Z,23.35
2022-11-30T22:31:30.626Z,19.80
2022-11-30T22:33:58.814Z,19.75
2022-11-30T22:36:29.620Z,21.55
2022-11-30T22:39:00.199Z,25.15
2022-11-30T22:41:29.123Z,21.88
2022-11-30T22:43:57.696Z,21.73
2022-11-30T22:46:27.429Z,20.38
2022-11-30T22:48:55.671Z,20.25
2022-11-30T22:51:25.980Z,20.60
2022-11-30T22:53:56.188Z,23.00
2022-11-30T22:56:25.924Z,21.75
2022-11-30T22:58:55.909Z,21.20
2022-11-30T23:01:25.514Z,19.98
2022-11-30T23:03:56.239Z,22.15
2022-11-30T23:06:25.626Z,21.80
2022-11-30T23:08:55.408Z,21.92
2022-11-30T23:11:25.275Z,20.05
2022-11-30T23:13:53.625Z,20.30
2022-11-30T23:16:22.397Z,20.58
2022-11-30T23:18:54.011Z,22.05
2022-11-30T23:21:25.956Z,22.38
2022-11-30T23:23:56.292Z,22.85
2022-11-30T23:26:26.200Z,23.20
2022-11-30T23:28:55.511Z,22.20
2022-11-30T23:31:34.063Z,22.70
2022-11-30T23:34:06.435Z,22.05
2022-11-30T23:36:34.855Z,23.00
2022-11-30T23:39:06.865Z,21.00
2022-11-30T23:41:35.271Z,20.90
2022-11-30T23:44:03.800Z,22.17
2022-11-30T23:46:32.260Z,21.05
2022-11-30T23:49:00.653Z,21.17
2022-11-30T23:51:28.750Z,21.10
2022-11-30T23:53:57.150Z,21.30
2022-11-30T23:56:26.417Z,21.70
2022-11-30T23:58:54.535Z,21.38
